createdAt,value
2016-08-16T00:00:11.343Z,1023.83
2016-08-16T00:01:11.361Z,1023.77
2016-08-16T00:02:11.380Z,1023.76
2016-08-16T00:03:11.529Z,1023.77
2016-08-16T00:04:11.430Z,1023.74
2016-08-16T00:05:11.438Z,1023.75
2016-08-16T00:06:11.456Z,1023.72
2016-08-16T00:07:11.475Z,1023.73
2016-08-16T00:08:11.498Z,1023.76
2016-08-16T00:09:11.527Z,1023.74
2016-08-16T00:10:11.540Z,1023.71
2016-08-16T00:11:11.552Z,1023.73
2016-08-16T00:12:11.579Z,1023.73
2016-08-16T00:13:11.594Z,1023.74
2016-08-16T00:14:11.613Z,1023.71
2016-08-16T00:15:11.631Z,1023.73
2016-08-16T00:16:11.711Z,1023.77
2016-08-16T00:17:11.674Z,1023.72
2016-08-16T00:18:11.791Z,1023.71
2016-08-16T00:19:11.714Z,1023.74
2016-08-16T00:20:11.781Z,1023.71
2016-08-16T00:21:11.749Z,1023.71
2016-08-16T00:22:11.773Z,1023.75
2016-08-16T00:23:11.789Z,1023.74
2016-08-16T00:24:11.816Z,1023.72
2016-08-16T00:25:11.833Z,1023.73
2016-08-16T00:26:11.905Z,1023.75
2016-08-16T00:27:11.864Z,1023.71
2016-08-16T00:28:11.885Z,1023.7
2016-08-16T00:29:11.904Z,1023.72
2016-08-16T00:30:11.924Z,1023.74
2016-08-16T00:31:11.943Z,1023.72
2016-08-16T00:32:11.984Z,1023.71
2016-08-16T00:33:11.984Z,1023.68
2016-08-16T00:34:12.003Z,1023.65
2016-08-16T00:35:12.023Z,1023.62
2016-08-16T00:36:12.045Z,1023.67
2016-08-16T00:37:12.065Z,1023.63
2016-08-16T00:38:12.083Z,1023.63
2016-08-16T00:39:12.100Z,1023.62
2016-08-16T00:40:12.116Z,1023.59
2016-08-16T00:41:12.134Z,1023.62
2016-08-16T00:42:12.152Z,1023.63
2016-08-16T00:43:12.175Z,1023.58
2016-08-16T00:44:12.213Z,1023.57
2016-08-16T00:45:12.212Z,1023.54
2016-08-16T00:46:12.231Z,1023.57
2016-08-16T00:47:12.258Z,1023.56
2016-08-16T00:48:12.269Z,1023.56
2016-08-16T00:49:12.289Z,1023.51
2016-08-16T00:50:12.304Z,1023.53
2016-08-16T00:51:12.328Z,1023.54
2016-08-16T00:52:12.342Z,1023.54
2016-08-16T00:53:12.365Z,1023.54
2016-08-16T00:54:12.386Z,1023.5
2016-08-16T00:55:12.401Z,1023.5
2016-08-16T00:56:12.422Z,1023.49
2016-08-16T00:57:12.442Z,1023.48
2016-08-16T00:58:12.461Z,1023.5
2016-08-16T00:59:12.482Z,1023.52
2016-08-16T01:00:12.502Z,1023.52
2016-08-16T01:01:12.522Z,1023.47
2016-08-16T01:02:12.539Z,1023.52
2016-08-16T01:03:12.556Z,1023.53
2016-08-16T01:04:12.578Z,1023.46
2016-08-16T01:05:12.598Z,1023.45
2016-08-16T01:06:12.623Z,1023.45
2016-08-16T01:07:12.638Z,1023.39
2016-08-16T01:08:12.655Z,1023.42
2016-08-16T01:09:12.670Z,1023.39
2016-08-16T01:10:12.691Z,1023.37
2016-08-16T01:11:12.710Z,1023.42
2016-08-16T01:12:12.732Z,1023.43
2016-08-16T01:13:12.750Z,1023.44
2016-08-16T01:14:12.770Z,1023.48
2016-08-16T01:15:12.789Z,1023.45
2016-08-16T01:16:12.810Z,1023.44
2016-08-16T01:17:12.831Z,1023.46
2016-08-16T01:18:12.854Z,1023.49
2016-08-16T01:19:12.870Z,1023.46
2016-08-16T01:20:12.885Z,1023.44
2016-08-16T01:21:12.902Z,1023.47
2016-08-16T01:22:12.921Z,1023.39
2016-08-16T01:23:12.940Z,1023.41
2016-08-16T01:24:13.480Z,1023.4
2016-08-16T01:25:12.978Z,1023.35
2016-08-16T01:26:13.006Z,1023.4
2016-08-16T01:27:13.014Z,1023.37
2016-08-16T01:28:13.044Z,1023.36
2016-08-16T01:29:13.056Z,1023.36
2016-08-16T01:30:13.082Z,1023.37
2016-08-16T01:31:13.091Z,1023.33
2016-08-16T01:32:13.122Z,1023.35
2016-08-16T01:33:13.132Z,1023.35
2016-08-16T01:34:13.201Z,1023.32
2016-08-16T01:35:13.172Z,1023.36
2016-08-16T01:36:13.243Z,1023.34
2016-08-16T01:37:13.212Z,1023.36
2016-08-16T01:38:13.226Z,1023.36
2016-08-16T01:39:13.243Z,1023.35
2016-08-16T01:40:13.265Z,1023.35
2016-08-16T01:41:13.290Z,1023.34
2016-08-16T01:42:13.309Z,1023.35
2016-08-16T01:43:13.321Z,1023.36
2016-08-16T01:44:13.342Z,1023.33
2016-08-16T01:45:13.361Z,1023.33
2016-08-16T01:46:13.380Z,1023.34
2016-08-16T01:47:13.404Z,1023.31
2016-08-16T01:48:13.418Z,1023.31
2016-08-16T01:49:13.439Z,1023.3
2016-08-16T01:50:13.463Z,1023.26
2016-08-16T01:51:13.478Z,1023.26
2016-08-16T01:52:13.499Z,1023.23
2016-08-16T01:53:13.519Z,1023.22
2016-08-16T01:54:13.535Z,1023.21
2016-08-16T01:55:13.551Z,1023.21
2016-08-16T01:56:13.570Z,1023.21
2016-08-16T01:57:13.592Z,1023.21
2016-08-16T01:58:13.726Z,1023.23
2016-08-16T01:59:13.623Z,1023.25
2016-08-16T02:00:14.052Z,1023.19
2016-08-16T02:01:13.663Z,1023.22
2016-08-16T02:02:13.688Z,1023.19
2016-08-16T02:03:13.701Z,1023.17
2016-08-16T02:04:13.722Z,1023.16
2016-08-16T02:05:13.741Z,1023.19
2016-08-16T02:06:13.763Z,1023.2
2016-08-16T02:07:13.779Z,1023.2
2016-08-16T02:08:13.800Z,1023.19
2016-08-16T02:09:13.819Z,1023.15
2016-08-16T02:10:13.835Z,1023.17
2016-08-16T02:11:13.857Z,1023.15
2016-08-16T02:12:13.877Z,1023.17
2016-08-16T02:13:13.892Z,1023.17
2016-08-16T02:14:13.911Z,1023.2
2016-08-16T02:15:13.930Z,1023.23
2016-08-16T02:16:13.946Z,1023.22
2016-08-16T02:17:13.973Z,1023.19
2016-08-16T02:18:13.989Z,1023.2
2016-08-16T02:19:14.007Z,1023.2
2016-08-16T02:20:14.032Z,1023.2
2016-08-16T02:21:14.370Z,1023.23
2016-08-16T02:22:14.061Z,1023.18
2016-08-16T02:23:14.088Z,1023.18
2016-08-16T02:24:14.103Z,1023.16
2016-08-16T02:25:14.121Z,1023.18
2016-08-16T02:26:14.191Z,1023.2
2016-08-16T02:27:14.165Z,1023.18
2016-08-16T02:28:14.183Z,1023.2
2016-08-16T02:29:14.197Z,1023.16
2016-08-16T02:30:14.215Z,1023.18
2016-08-16T02:31:14.232Z,1023.16
2016-08-16T02:32:14.253Z,1023.14
2016-08-16T02:33:14.271Z,1023.16
2016-08-16T02:34:14.296Z,1023.17
2016-08-16T02:35:14.316Z,1023.17
2016-08-16T02:36:14.329Z,1023.2
2016-08-16T02:37:14.347Z,1023.17
2016-08-16T02:38:14.361Z,1023.18
2016-08-16T02:39:14.388Z,1023.2
2016-08-16T02:40:14.402Z,1023.16
2016-08-16T02:41:14.419Z,1023.17
2016-08-16T02:42:14.443Z,1023.13
2016-08-16T02:43:14.466Z,1023.14
2016-08-16T02:44:14.483Z,1023.11
2016-08-16T02:45:14.495Z,1023.12
2016-08-16T02:46:14.517Z,1023.09
2016-08-16T02:47:14.543Z,1023.08
2016-08-16T02:48:14.560Z,1023.07
2016-08-16T02:49:14.571Z,1023.05
2016-08-16T02:50:14.592Z,1023.02
2016-08-16T02:51:14.617Z,1023.05
2016-08-16T02:52:14.628Z,1023.07
2016-08-16T02:53:14.648Z,1023.06
2016-08-16T02:54:14.670Z,1023.12
2016-08-16T02:55:14.685Z,1023.05
2016-08-16T02:56:14.703Z,1023.07
2016-08-16T02:57:14.721Z,1023.05
2016-08-16T02:58:14.742Z,1023.04
2016-08-16T02:59:14.762Z,1022.99
2016-08-16T03:00:14.776Z,1023.01
2016-08-16T03:01:14.794Z,1022.98
2016-08-16T03:02:14.819Z,1023
2016-08-16T03:03:14.840Z,1022.98
2016-08-16T03:04:14.855Z,1023
2016-08-16T03:05:14.878Z,1022.96
2016-08-16T03:06:14.895Z,1022.98
2016-08-16T03:07:14.912Z,1022.94
2016-08-16T03:08:14.941Z,1022.96
2016-08-16T03:09:14.951Z,1022.93
2016-08-16T03:10:14.971Z,1022.94
2016-08-16T03:11:14.982Z,1022.91
2016-08-16T03:12:15.003Z,1022.89
2016-08-16T03:13:15.023Z,1022.92
2016-08-16T03:14:15.042Z,1022.88
2016-08-16T03:15:15.063Z,1022.87
2016-08-16T03:16:15.431Z,1022.9
2016-08-16T03:17:15.241Z,1022.87
2016-08-16T03:18:15.420Z,1022.86
2016-08-16T03:19:15.284Z,1022.87
2016-08-16T03:20:15.400Z,1022.81
2016-08-16T03:21:15.274Z,1022.84
2016-08-16T03:22:15.340Z,1022.83
2016-08-16T03:23:15.312Z,1022.81
2016-08-16T03:24:15.275Z,1022.81
2016-08-16T03:25:15.357Z,1022.78
2016-08-16T03:26:15.364Z,1022.77
2016-08-16T03:27:15.282Z,1022.76
2016-08-16T03:28:15.302Z,1022.8
2016-08-16T03:29:15.474Z,1022.78
2016-08-16T03:30:15.335Z,1022.73
2016-08-16T03:31:15.503Z,1022.76
2016-08-16T03:32:15.383Z,1022.76
2016-08-16T03:33:15.543Z,1022.75
2016-08-16T03:34:15.413Z,1022.79
2016-08-16T03:35:15.533Z,1022.78
2016-08-16T03:36:15.454Z,1022.74
2016-08-16T03:37:15.519Z,1022.74
2016-08-16T03:38:15.481Z,1022.73
2016-08-16T03:39:15.512Z,1022.69
2016-08-16T03:40:15.522Z,1022.71
2016-08-16T03:41:15.541Z,1022.73
2016-08-16T03:42:15.565Z,1022.68
2016-08-16T03:43:15.580Z,1022.68
2016-08-16T03:44:15.653Z,1022.69
2016-08-16T03:45:15.614Z,1022.7
2016-08-16T03:46:15.632Z,1022.68
2016-08-16T03:47:15.654Z,1022.67
2016-08-16T03:48:15.673Z,1022.68
2016-08-16T03:49:15.692Z,1022.66
2016-08-16T03:50:15.713Z,1022.68
2016-08-16T03:51:15.724Z,1022.71
2016-08-16T03:52:15.743Z,1022.7
2016-08-16T03:53:15.762Z,1022.71
2016-08-16T03:54:15.784Z,1022.72
2016-08-16T03:55:15.803Z,1022.72
2016-08-16T03:56:15.824Z,1022.71
2016-08-16T03:57:15.848Z,1022.74
2016-08-16T03:58:15.862Z,1022.73
2016-08-16T03:59:15.881Z,1022.72
2016-08-16T04:00:15.892Z,1022.78
2016-08-16T04:01:15.911Z,1022.8
2016-08-16T04:02:15.928Z,1022.79
2016-08-16T04:03:15.951Z,1022.79
2016-08-16T04:04:15.973Z,1022.77
2016-08-16T04:05:15.991Z,1022.77
2016-08-16T04:06:16.006Z,1022.79
2016-08-16T04:07:16.034Z,1022.79
2016-08-16T04:08:16.040Z,1022.78
2016-08-16T04:09:16.059Z,1022.79
2016-08-16T04:10:16.083Z,1022.77
2016-08-16T04:11:16.096Z,1022.8
2016-08-16T04:12:16.113Z,1022.79
2016-08-16T04:13:16.143Z,1022.78
2016-08-16T04:14:16.154Z,1022.78
2016-08-16T04:15:16.175Z,1022.8
2016-08-16T04:16:16.193Z,1022.78
2016-08-16T04:17:16.438Z,1022.78
2016-08-16T04:18:16.235Z,1022.76
2016-08-16T04:19:16.246Z,1022.79
2016-08-16T04:20:16.267Z,1022.77
2016-08-16T04:21:16.284Z,1022.76
2016-08-16T04:22:16.302Z,1022.76
2016-08-16T04:23:16.322Z,1022.75
2016-08-16T04:24:16.339Z,1022.79
2016-08-16T04:25:16.352Z,1022.8
2016-08-16T04:26:16.376Z,1022.8
2016-08-16T04:27:16.393Z,1022.78
2016-08-16T04:28:16.414Z,1022.79
2016-08-16T04:29:16.430Z,1022.84
2016-08-16T04:30:16.452Z,1022.85
2016-08-16T04:31:16.466Z,1022.85
2016-08-16T04:32:16.481Z,1022.87
2016-08-16T04:33:16.509Z,1022.84
2016-08-16T04:34:16.523Z,1022.88
2016-08-16T04:35:16.541Z,1022.84
2016-08-16T04:36:16.561Z,1022.86
2016-08-16T04:37:16.582Z,1022.86
2016-08-16T04:38:16.597Z,1022.85
2016-08-16T04:39:16.615Z,1022.84
2016-08-16T04:40:16.633Z,1022.83
2016-08-16T04:41:16.653Z,1022.8
2016-08-16T04:42:16.671Z,1022.83
2016-08-16T04:43:16.689Z,1022.76
2016-08-16T04:44:16.709Z,1022.8
2016-08-16T04:45:16.730Z,1022.76
2016-08-16T04:46:16.745Z,1022.73
2016-08-16T04:47:16.763Z,1022.78
2016-08-16T04:48:16.780Z,1022.74
2016-08-16T04:49:16.803Z,1022.71
2016-08-16T04:50:16.819Z,1022.73
2016-08-16T04:51:16.842Z,1022.76
2016-08-16T04:52:16.862Z,1022.75
2016-08-16T04:53:16.886Z,1022.73
2016-08-16T04:54:16.892Z,1022.72
2016-08-16T04:55:16.920Z,1022.73
2016-08-16T04:56:16.938Z,1022.72
2016-08-16T04:57:16.956Z,1022.7
2016-08-16T04:58:16.983Z,1022.7
2016-08-16T04:59:16.993Z,1022.66
2016-08-16T05:00:17.113Z,1022.7
2016-08-16T05:01:17.033Z,1022.67
2016-08-16T05:02:17.047Z,1022.67
2016-08-16T05:03:17.073Z,1022.67
2016-08-16T05:04:17.093Z,1022.69
2016-08-16T05:05:17.111Z,1022.67
2016-08-16T05:06:17.127Z,1022.64
2016-08-16T05:07:17.148Z,1022.64
2016-08-16T05:08:17.163Z,1022.65
2016-08-16T05:09:17.398Z,1022.62
2016-08-16T05:10:17.201Z,1022.62
2016-08-16T05:11:17.221Z,1022.62
2016-08-16T05:12:17.238Z,1022.62
2016-08-16T05:13:17.264Z,1022.59
2016-08-16T05:14:17.275Z,1022.63
2016-08-16T05:15:17.352Z,1022.62
2016-08-16T05:16:17.315Z,1022.62
2016-08-16T05:17:17.342Z,1022.62
2016-08-16T05:18:17.361Z,1022.6
2016-08-16T05:19:17.383Z,1022.59
2016-08-16T05:20:17.403Z,1022.61
2016-08-16T05:21:17.422Z,1022.58
2016-08-16T05:22:17.460Z,1022.6
2016-08-16T05:23:17.621Z,1022.59
2016-08-16T05:24:17.484Z,1022.58
2016-08-16T05:25:17.581Z,1022.6
2016-08-16T05:26:17.761Z,1022.58
2016-08-16T05:27:17.565Z,1022.57
2016-08-16T05:28:17.560Z,1022.62
2016-08-16T05:29:17.672Z,1022.68
2016-08-16T05:30:17.853Z,1022.75
2016-08-16T05:31:17.878Z,1022.68
2016-08-16T05:32:17.674Z,1022.65
2016-08-16T05:33:17.890Z,1022.64
2016-08-16T05:34:17.684Z,1022.63
2016-08-16T05:35:17.762Z,1022.61
2016-08-16T05:36:17.879Z,1022.64
2016-08-16T05:37:18.009Z,1022.6
2016-08-16T05:38:18.083Z,1022.6
2016-08-16T05:39:17.798Z,1022.6
2016-08-16T05:40:18.071Z,1022.64
2016-08-16T05:41:17.931Z,1022.65
2016-08-16T05:42:17.946Z,1022.69
2016-08-16T05:43:18.070Z,1022.69
2016-08-16T05:44:18.172Z,1022.63
2016-08-16T05:45:18.004Z,1022.71
2016-08-16T05:46:18.067Z,1022.66
2016-08-16T05:47:18.071Z,1022.65
2016-08-16T05:48:18.281Z,1022.64
2016-08-16T05:49:18.082Z,1022.68
2016-08-16T05:50:18.213Z,1022.65
2016-08-16T05:51:18.360Z,1022.68
2016-08-16T05:52:18.244Z,1022.68
2016-08-16T05:53:18.279Z,1022.68
2016-08-16T05:54:18.432Z,1022.64
2016-08-16T05:55:18.202Z,1022.67
2016-08-16T05:56:18.230Z,1022.59
2016-08-16T05:57:18.251Z,1022.59
2016-08-16T05:58:18.537Z,1022.52
2016-08-16T05:59:18.567Z,1022.48
2016-08-16T06:00:18.598Z,1022.5
2016-08-16T06:01:18.612Z,1022.57
2016-08-16T06:02:18.469Z,1022.55
2016-08-16T06:03:18.637Z,1022.57
2016-08-16T06:04:18.669Z,1022.56
2016-08-16T06:05:18.554Z,1022.52
2016-08-16T06:06:18.763Z,1022.5
2016-08-16T06:07:18.611Z,1022.52
2016-08-16T06:08:18.821Z,1022.57
2016-08-16T06:09:18.619Z,1022.57
2016-08-16T06:10:18.692Z,1022.54
2016-08-16T06:11:18.777Z,1022.59
2016-08-16T06:12:18.828Z,1022.57
2016-08-16T06:13:18.966Z,1022.56
2016-08-16T06:14:18.718Z,1022.57
2016-08-16T06:15:18.791Z,1022.5
2016-08-16T06:16:18.844Z,1022.49
2016-08-16T06:17:19.057Z,1022.5
2016-08-16T06:18:19.086Z,1022.51
2016-08-16T06:19:18.956Z,1022.53
2016-08-16T06:20:19.130Z,1022.52
2016-08-16T06:21:19.012Z,1022.57
2016-08-16T06:22:19.181Z,1022.53
2016-08-16T06:23:18.948Z,1022.53
2016-08-16T06:24:18.976Z,1022.55
2016-08-16T06:25:19.004Z,1022.53
2016-08-16T06:26:19.026Z,1022.56
2016-08-16T06:27:19.048Z,1022.57
2016-08-16T06:28:19.091Z,1022.62
2016-08-16T06:29:19.104Z,1022.56
2016-08-16T06:30:19.467Z,1022.53
2016-08-16T06:31:19.150Z,1022.52
2016-08-16T06:32:19.179Z,1022.53
2016-08-16T06:33:19.204Z,1022.5
2016-08-16T06:34:19.236Z,1022.5
2016-08-16T06:35:19.251Z,1022.49
2016-08-16T06:36:19.276Z,1022.54
2016-08-16T06:37:19.297Z,1022.53
2016-08-16T06:38:19.330Z,1022.56
2016-08-16T06:39:19.360Z,1022.58
2016-08-16T06:40:19.379Z,1022.55
2016-08-16T06:41:19.400Z,1022.53
2016-08-16T06:42:19.425Z,1022.54
2016-08-16T06:43:19.498Z,1022.61
2016-08-16T06:44:19.480Z,1022.6
2016-08-16T06:45:19.513Z,1022.59
2016-08-16T06:46:19.528Z,1022.57
2016-08-16T06:47:19.553Z,1022.57
2016-08-16T06:48:19.581Z,1022.6
2016-08-16T06:49:19.607Z,1022.63
2016-08-16T06:50:19.630Z,1022.66
2016-08-16T06:51:19.658Z,1022.59
2016-08-16T06:52:19.689Z,1022.63
2016-08-16T06:53:19.709Z,1022.62
2016-08-16T06:54:19.732Z,1022.68
2016-08-16T06:55:19.761Z,1022.68
2016-08-16T06:56:19.777Z,1022.68
2016-08-16T06:57:19.808Z,1022.69
2016-08-16T06:58:19.834Z,1022.67
2016-08-16T06:59:19.859Z,1022.69
2016-08-16T07:00:19.889Z,1022.66
2016-08-16T07:01:19.907Z,1022.64
2016-08-16T07:02:19.938Z,1022.64
2016-08-16T07:03:19.963Z,1022.62
2016-08-16T07:04:19.987Z,1022.64
2016-08-16T07:05:20.124Z,1022.6
2016-08-16T07:06:20.038Z,1022.6
2016-08-16T07:07:20.063Z,1022.62
2016-08-16T07:08:20.090Z,1022.64
2016-08-16T07:09:20.116Z,1022.6
2016-08-16T07:10:20.142Z,1022.63
2016-08-16T07:11:20.164Z,1022.64
2016-08-16T07:12:20.193Z,1022.61
2016-08-16T07:13:20.224Z,1022.62
2016-08-16T07:14:20.249Z,1022.61
2016-08-16T07:15:20.269Z,1022.62
2016-08-16T07:16:20.294Z,1022.6
2016-08-16T07:17:20.328Z,1022.58
2016-08-16T07:18:20.350Z,1022.61
2016-08-16T07:19:20.391Z,1022.58
2016-08-16T07:20:20.400Z,1022.58
2016-08-16T07:21:20.425Z,1022.59
2016-08-16T07:22:20.470Z,1022.58
2016-08-16T07:23:20.482Z,1022.57
2016-08-16T07:24:20.503Z,1022.61
2016-08-16T07:25:20.529Z,1022.59
2016-08-16T07:26:20.553Z,1022.59
2016-08-16T07:27:20.582Z,1022.57
2016-08-16T07:28:20.611Z,1022.54
2016-08-16T07:29:20.645Z,1022.58
2016-08-16T07:30:20.660Z,1022.52
2016-08-16T07:31:20.682Z,1022.54
2016-08-16T07:32:20.710Z,1022.59
2016-08-16T07:33:20.734Z,1022.58
2016-08-16T07:34:20.765Z,1022.54
2016-08-16T07:35:20.788Z,1022.56
2016-08-16T07:36:20.815Z,1022.56
2016-08-16T07:37:20.841Z,1022.57
2016-08-16T07:38:20.872Z,1022.52
2016-08-16T07:39:20.890Z,1022.58
2016-08-16T07:40:20.920Z,1022.53
2016-08-16T07:41:20.953Z,1022.55
2016-08-16T07:42:20.971Z,1022.56
2016-08-16T07:43:21.006Z,1022.55
2016-08-16T07:44:21.033Z,1022.59
2016-08-16T07:45:21.052Z,1022.59
2016-08-16T07:46:21.079Z,1022.54
2016-08-16T07:47:21.104Z,1022.56
2016-08-16T07:48:21.126Z,1022.53
2016-08-16T07:49:21.162Z,1022.54
2016-08-16T07:50:21.184Z,1022.55
2016-08-16T07:51:21.213Z,1022.55
2016-08-16T07:52:21.239Z,1022.55
2016-08-16T07:53:21.261Z,1022.55
2016-08-16T07:54:21.294Z,1022.55
2016-08-16T07:55:21.321Z,1022.55
2016-08-16T07:56:21.347Z,1022.55
2016-08-16T07:57:21.375Z,1022.53
2016-08-16T07:58:21.454Z,1022.55
2016-08-16T07:59:21.428Z,1022.54
2016-08-16T08:00:21.454Z,1022.51
2016-08-16T08:01:21.482Z,1022.51
2016-08-16T08:02:21.511Z,1022.5
2016-08-16T08:03:21.533Z,1022.49
2016-08-16T08:04:21.559Z,1022.51
2016-08-16T08:05:21.591Z,1022.5
2016-08-16T08:06:21.621Z,1022.5
2016-08-16T08:07:21.654Z,1022.52
2016-08-16T08:08:21.669Z,1022.51
2016-08-16T08:09:21.793Z,1022.52
2016-08-16T08:10:21.728Z,1022.51
2016-08-16T08:11:21.749Z,1022.5
2016-08-16T08:12:21.785Z,1022.49
2016-08-16T08:13:21.805Z,1022.49
2016-08-16T08:14:21.836Z,1022.51
2016-08-16T08:15:21.866Z,1022.52
2016-08-16T08:16:21.884Z,1022.46
2016-08-16T08:17:21.912Z,1022.49
2016-08-16T08:18:21.945Z,1022.46
2016-08-16T08:19:21.964Z,1022.43
2016-08-16T08:20:21.994Z,1022.41
2016-08-16T08:21:22.024Z,1022.41
2016-08-16T08:22:22.055Z,1022.43
2016-08-16T08:23:22.075Z,1022.38
2016-08-16T08:24:22.099Z,1022.37
2016-08-16T08:25:22.138Z,1022.42
2016-08-16T08:26:22.207Z,1022.42
2016-08-16T08:27:22.183Z,1022.42
2016-08-16T08:28:22.204Z,1022.42
2016-08-16T08:29:22.234Z,1022.46
2016-08-16T08:30:22.256Z,1022.4
2016-08-16T08:31:22.282Z,1022.39
2016-08-16T08:32:22.315Z,1022.34
2016-08-16T08:33:22.333Z,1022.29
2016-08-16T08:34:22.363Z,1022.32
2016-08-16T08:35:22.395Z,1022.35
2016-08-16T08:36:22.415Z,1022.36
2016-08-16T08:37:22.444Z,1022.34
2016-08-16T08:38:22.463Z,1022.32
2016-08-16T08:39:22.496Z,1022.32
2016-08-16T08:40:22.526Z,1022.41
2016-08-16T08:41:22.549Z,1022.32
2016-08-16T08:42:22.575Z,1022.35
2016-08-16T08:43:22.605Z,1022.33
2016-08-16T08:44:22.624Z,1022.3
2016-08-16T08:45:22.653Z,1022.2
2016-08-16T08:46:22.682Z,1022.23
2016-08-16T08:47:22.710Z,1022.3
2016-08-16T08:48:22.735Z,1022.3
2016-08-16T08:49:22.764Z,1022.26
2016-08-16T08:50:22.790Z,1022.25
2016-08-16T08:51:22.824Z,1022.23
2016-08-16T08:52:22.846Z,1022.21
2016-08-16T08:53:22.865Z,1022.2
2016-08-16T08:54:22.893Z,1022.17
2016-08-16T08:55:22.915Z,1022.19
2016-08-16T08:56:22.940Z,1022.16
2016-08-16T08:57:22.964Z,1022.16
2016-08-16T08:58:22.994Z,1022.2
2016-08-16T08:59:23.033Z,1022.26
2016-08-16T09:00:23.043Z,1022.24
2016-08-16T09:01:23.074Z,1022.22
2016-08-16T09:02:23.106Z,1022.18
2016-08-16T09:03:23.122Z,1022.18
2016-08-16T09:04:23.144Z,1022.21
2016-08-16T09:05:23.174Z,1022.15
2016-08-16T09:06:23.218Z,1022.19
2016-08-16T09:07:23.225Z,1022.18
2016-08-16T09:08:23.253Z,1022.16
2016-08-16T09:09:23.279Z,1022.16
2016-08-16T09:10:23.303Z,1022.14
2016-08-16T09:11:23.337Z,1022.13
2016-08-16T09:12:23.354Z,1022.14
2016-08-16T09:13:23.387Z,1022.15
2016-08-16T09:14:23.417Z,1022.16
2016-08-16T09:15:23.484Z,1022.13
2016-08-16T09:16:23.460Z,1022.13
2016-08-16T09:17:23.485Z,1022.12
2016-08-16T09:18:23.513Z,1022.08
2016-08-16T09:19:23.545Z,1022.05
2016-08-16T09:20:23.563Z,1022.06
2016-08-16T09:21:23.594Z,1022.02
2016-08-16T09:22:23.626Z,1022.02
2016-08-16T09:23:23.648Z,1022.07
2016-08-16T09:24:23.722Z,1022.05
2016-08-16T09:25:23.695Z,1022.1
2016-08-16T09:26:23.823Z,1022.1
2016-08-16T09:27:23.754Z,1022.12
2016-08-16T09:28:23.781Z,1022.15
2016-08-16T09:29:23.809Z,1022.18
2016-08-16T09:30:23.833Z,1022.15
2016-08-16T09:31:23.860Z,1022.14
2016-08-16T09:32:23.887Z,1022.18
2016-08-16T09:33:23.914Z,1022.16
2016-08-16T09:34:23.933Z,1022.15
2016-08-16T09:35:23.964Z,1022.12
2016-08-16T09:36:23.993Z,1022.11
2016-08-16T09:37:24.022Z,1022.09
2016-08-16T09:38:24.047Z,1022.09
2016-08-16T09:39:24.080Z,1022.11
2016-08-16T09:40:24.104Z,1022.11
2016-08-16T09:41:24.124Z,1022.08
2016-08-16T09:42:24.151Z,1022.08
2016-08-16T09:43:24.177Z,1022.1
2016-08-16T09:44:24.205Z,1022.08
2016-08-16T09:45:24.233Z,1022.07
2016-08-16T09:46:24.258Z,1022.09
2016-08-16T09:47:24.281Z,1022.04
2016-08-16T09:48:24.315Z,1022.08
2016-08-16T09:49:24.336Z,1022.05
2016-08-16T09:50:24.368Z,1022.04
2016-08-16T09:51:24.392Z,1022.05
2016-08-16T09:52:24.420Z,1022.05
2016-08-16T09:53:24.451Z,1022.05
2016-08-16T09:54:24.476Z,1022.05
2016-08-16T09:55:24.500Z,1022.05
2016-08-16T09:56:24.527Z,1022.05
2016-08-16T09:57:24.552Z,1022.09
2016-08-16T09:58:24.578Z,1022.15
2016-08-16T09:59:24.616Z,1022.17
2016-08-16T10:00:24.633Z,1022.19
2016-08-16T10:01:24.664Z,1022.16
2016-08-16T10:02:24.692Z,1022.18
2016-08-16T10:03:24.713Z,1022.12
2016-08-16T10:04:24.743Z,1022.09
2016-08-16T10:05:24.770Z,1022.04
2016-08-16T10:06:24.798Z,1022.02
2016-08-16T10:07:24.826Z,1022
2016-08-16T10:08:24.853Z,1021.94
2016-08-16T10:09:24.882Z,1021.98
2016-08-16T10:10:24.907Z,1021.98
2016-08-16T10:11:24.934Z,1021.97
2016-08-16T10:12:24.958Z,1022.01
2016-08-16T10:13:24.986Z,1022.01
2016-08-16T10:14:25.012Z,1022.02
2016-08-16T10:15:25.042Z,1022
2016-08-16T10:16:25.061Z,1022.01
2016-08-16T10:17:25.093Z,1022.05
2016-08-16T10:18:25.122Z,1021.97
2016-08-16T10:19:25.142Z,1021.96
2016-08-16T10:20:25.171Z,1021.97
2016-08-16T10:21:25.202Z,1021.96
2016-08-16T10:22:25.222Z,1021.98
2016-08-16T10:23:25.250Z,1022.03
2016-08-16T10:24:25.276Z,1021.98
2016-08-16T10:25:25.307Z,1022.01
2016-08-16T10:26:25.382Z,1021.98
2016-08-16T10:27:25.356Z,1021.99
2016-08-16T10:28:25.442Z,1021.94
2016-08-16T10:29:25.413Z,1021.98
2016-08-16T10:30:25.437Z,1021.96
2016-08-16T10:31:25.462Z,1021.95
2016-08-16T10:32:25.487Z,1021.92
2016-08-16T10:33:25.521Z,1021.96
2016-08-16T10:34:25.538Z,1021.91
2016-08-16T10:35:25.566Z,1021.85
2016-08-16T10:36:25.593Z,1021.8
2016-08-16T10:37:25.634Z,1021.86
2016-08-16T10:38:25.644Z,1021.84
2016-08-16T10:39:25.681Z,1021.84
2016-08-16T10:40:25.702Z,1021.83
2016-08-16T10:41:25.725Z,1021.87
2016-08-16T10:42:25.751Z,1021.88
2016-08-16T10:43:25.782Z,1021.93
2016-08-16T10:44:25.806Z,1021.9
2016-08-16T10:45:25.834Z,1021.93
2016-08-16T10:46:25.860Z,1021.86
2016-08-16T10:47:25.886Z,1021.84
2016-08-16T10:48:25.924Z,1021.82
2016-08-16T10:49:25.946Z,1021.74
2016-08-16T10:50:25.983Z,1021.79
2016-08-16T10:51:25.992Z,1021.77
2016-08-16T10:52:26.015Z,1021.75
2016-08-16T10:53:26.046Z,1021.71
2016-08-16T10:54:26.073Z,1021.69
2016-08-16T10:55:26.099Z,1021.73
2016-08-16T10:56:26.133Z,1021.68
2016-08-16T10:57:26.155Z,1021.72
2016-08-16T10:58:26.184Z,1021.62
2016-08-16T10:59:26.207Z,1021.59
2016-08-16T11:00:26.232Z,1021.57
2016-08-16T11:01:26.266Z,1021.52
2016-08-16T11:02:26.282Z,1021.49
2016-08-16T11:03:26.312Z,1021.52
2016-08-16T11:04:26.344Z,1021.53
2016-08-16T11:05:26.362Z,1021.51
2016-08-16T11:06:26.391Z,1021.59
2016-08-16T11:07:26.411Z,1021.56
2016-08-16T11:08:26.443Z,1021.52
2016-08-16T11:09:26.476Z,1021.55
2016-08-16T11:10:26.489Z,1021.54
2016-08-16T11:11:26.515Z,1021.59
2016-08-16T11:12:26.543Z,1021.6
2016-08-16T11:13:26.570Z,1021.48
2016-08-16T11:14:26.606Z,1021.57
2016-08-16T11:15:26.626Z,1021.64
2016-08-16T11:16:26.660Z,1021.65
2016-08-16T11:17:26.673Z,1021.61
2016-08-16T11:18:26.699Z,1021.64
2016-08-16T11:19:26.730Z,1021.59
2016-08-16T11:20:26.752Z,1021.53
2016-08-16T11:21:26.780Z,1021.49
2016-08-16T11:22:26.803Z,1021.53
2016-08-16T11:23:26.833Z,1021.54
2016-08-16T11:24:26.852Z,1021.48
2016-08-16T11:25:26.883Z,1021.51
2016-08-16T11:26:26.961Z,1021.47
2016-08-16T11:27:26.933Z,1021.51
2016-08-16T11:28:26.959Z,1021.48
2016-08-16T11:29:26.984Z,1021.48
2016-08-16T11:30:27.013Z,1021.53
2016-08-16T11:31:27.045Z,1021.49
2016-08-16T11:32:27.073Z,1021.39
2016-08-16T11:33:27.089Z,1021.43
2016-08-16T11:34:27.121Z,1021.34
2016-08-16T11:35:27.147Z,1021.31
2016-08-16T11:36:27.173Z,1021.35
2016-08-16T11:37:27.202Z,1021.36
2016-08-16T11:38:27.224Z,1021.31
2016-08-16T11:39:27.250Z,1021.35
2016-08-16T11:40:27.275Z,1021.38
2016-08-16T11:41:27.306Z,1021.32
2016-08-16T11:42:27.339Z,1021.44
2016-08-16T11:43:27.351Z,1021.43
2016-08-16T11:44:27.380Z,1021.37
2016-08-16T11:45:27.403Z,1021.41
2016-08-16T11:46:27.434Z,1021.44
2016-08-16T11:47:27.459Z,1021.43
2016-08-16T11:48:27.481Z,1021.42
2016-08-16T11:49:27.502Z,1021.41
2016-08-16T11:50:27.531Z,1021.48
2016-08-16T11:51:27.569Z,1021.37
2016-08-16T11:52:27.589Z,1021.38
2016-08-16T11:53:27.613Z,1021.4
2016-08-16T11:54:27.641Z,1021.31
2016-08-16T11:55:27.663Z,1021.37
2016-08-16T11:56:27.694Z,1021.37
2016-08-16T11:57:27.724Z,1021.34
2016-08-16T11:58:27.743Z,1021.31
2016-08-16T11:59:27.771Z,1021.32
2016-08-16T12:00:27.803Z,1021.29
2016-08-16T12:01:27.824Z,1021.26
2016-08-16T12:02:27.847Z,1021.25
2016-08-16T12:03:27.881Z,1021.25
2016-08-16T12:04:27.899Z,1021.26
2016-08-16T12:05:27.930Z,1021.34
2016-08-16T12:06:27.958Z,1021.28
2016-08-16T12:07:27.970Z,1021.27
2016-08-16T12:08:28.002Z,1021.25